createdAt,value
2022-09-25T00:01:32.935Z,98280.38
2022-09-25T00:04:19.527Z,98297.38
2022-09-25T00:07:05.178Z,98269.31
2022-09-25T00:09:50.334Z,98279.25
2022-09-25T00:12:36.072Z,98269.00
2022-09-25T00:15:22.528Z,98221.03
2022-09-25T00:18:08.013Z,98107.47
2022-09-25T00:21:01.872Z,98106.00
2022-09-25T00:23:47.794Z,97787.44
2022-09-25T00:26:36.345Z,98242.59
2022-09-25T00:29:22.054Z,98097.03
2022-09-25T00:32:09.998Z,98278.59
2022-09-25T00:34:55.720Z,98225.44
2022-09-25T00:37:40.998Z,98286.31
2022-09-25T00:40:26.424Z,98270.88
2022-09-25T00:43:33.501Z,98262.34
2022-09-25T00:46:36.773Z,98263.63
2022-09-25T00:49:25.967Z,98210.38
2022-09-25T00:52:13.336Z,98122.38
2022-09-25T00:55:03.259Z,98072.66
2022-09-25T00:57:52.470Z,98219.00
2022-09-25T01:00:37.949Z,98113.41
2022-09-25T01:03:24.226Z,98121.06
2022-09-25T01:06:12.111Z,98073.03
2022-09-25T01:08:59.245Z,98069.00
2022-09-25T01:11:45.209Z,98266.72
2022-09-25T01:14:34.189Z,98200.28
2022-09-25T01:17:32.378Z,98203.94
2022-09-25T01:21:12.591Z,98244.94
2022-09-25T01:24:37.353Z,98252.28
2022-09-25T01:27:32.157Z,98247.09
2022-09-25T01:30:19.769Z,98193.59
2022-09-25T01:33:15.069Z,98053.50
2022-09-25T01:36:12.024Z,98173.28
2022-09-25T01:39:05.992Z,98054.91
2022-09-25T01:42:03.185Z,98242.19
2022-09-25T01:45:02.404Z,98241.31
2022-09-25T01:47:50.254Z,98225.66
2022-09-25T01:50:43.428Z,98238.59
2022-09-25T01:53:43.510Z,98044.72
2022-09-25T01:56:33.903Z,98230.25
2022-09-25T01:59:45.310Z,98252.19
2022-09-25T02:02:37.976Z,98047.56
2022-09-25T02:05:31.078Z,98235.84
2022-09-25T02:08:31.087Z,98202.16
2022-09-25T02:11:16.788Z,98056.53
2022-09-25T02:14:13.714Z,98243.66
2022-09-25T02:17:01.374Z,98160.78
2022-09-25T02:20:05.611Z,98100.75
2022-09-25T02:22:54.145Z,98100.44
2022-09-25T02:26:08.263Z,98239.75
2022-09-25T02:28:54.452Z,98200.31
2022-09-25T02:31:45.093Z,98190.06
2022-09-25T02:34:32.539Z,98187.69
2022-09-25T02:37:18.791Z,98184.06
2022-09-25T02:40:04.937Z,97928.56
2022-09-25T02:43:04.130Z,98032.88
2022-09-25T02:46:03.839Z,98187.63
2022-09-25T02:49:04.757Z,98179.19
2022-09-25T02:52:02.830Z,98255.47
2022-09-25T02:55:07.147Z,98190.81
2022-09-25T02:58:04.088Z,98223.97
2022-09-25T03:00:52.195Z,98199.03
2022-09-25T03:03:39.217Z,98220.03
2022-09-25T03:06:25.941Z,98061.50
2022-09-25T03:09:13.610Z,98002.19
2022-09-25T03:11:59.200Z,98044.31
2022-09-25T03:14:44.568Z,98095.63
2022-09-25T03:17:29.835Z,98220.94
2022-09-25T03:20:15.155Z,98251.78
2022-09-25T03:23:00.904Z,98174.44
2022-09-25T03:25:50.266Z,98083.19
2022-09-25T03:28:36.614Z,98233.53
2022-09-25T03:31:22.684Z,98176.56
2022-09-25T03:34:09.467Z,98174.03
2022-09-25T03:36:54.694Z,98229.44
2022-09-25T03:39:40.009Z,98026.63
2022-09-25T03:42:27.645Z,98199.56
2022-09-25T03:45:13.440Z,98193.91
2022-09-25T03:47:58.753Z,98024.75
2022-09-25T03:50:44.580Z,98027.31
2022-09-25T03:53:31.731Z,98196.56
2022-09-25T03:56:20.387Z,98207.13
2022-09-25T03:59:05.622Z,98200.69
2022-09-25T04:01:50.973Z,98177.59
2022-09-25T04:04:37.771Z,98201.59
2022-09-25T04:07:24.787Z,98035.63
2022-09-25T04:10:10.319Z,98030.91
2022-09-25T04:12:55.707Z,98217.09
2022-09-25T04:15:42.783Z,98204.13
2022-09-25T04:18:31.923Z,97994.28
2022-09-25T04:21:17.486Z,98058.69
2022-09-25T04:24:21.442Z,97997.59
2022-09-25T04:27:07.222Z,98149.31
2022-09-25T04:29:52.963Z,98191.44
2022-09-25T04:32:56.791Z,98030.41
2022-09-25T04:35:42.315Z,98170.59
2022-09-25T04:38:27.706Z,98170.59
2022-09-25T04:41:13.211Z,98158.69
2022-09-25T04:43:58.469Z,98185.56
2022-09-25T04:46:44.208Z,98204.28
2022-09-25T04:49:29.399Z,98170.38
2022-09-25T04:52:16.152Z,98033.94
2022-09-25T04:55:01.572Z,98184.91
2022-09-25T04:57:58.795Z,98045.16
2022-09-25T05:00:44.627Z,98199.25
2022-09-25T05:03:30.128Z,98208.19
2022-09-25T05:06:15.893Z,98218.13
2022-09-25T05:09:02.032Z,98080.69
2022-09-25T05:11:47.730Z,98156.66
2022-09-25T05:14:33.159Z,98212.09
2022-09-25T05:17:18.471Z,98059.56
2022-09-25T05:20:03.781Z,98203.16
2022-09-25T05:22:49.115Z,98215.50
2022-09-25T05:25:34.677Z,98170.53
2022-09-25T05:28:20.353Z,98191.34
2022-09-25T05:31:06.515Z,98157.00
2022-09-25T05:33:53.969Z,98071.66
2022-09-25T05:36:39.776Z,98189.38
2022-09-25T05:39:24.883Z,98061.34
2022-09-25T05:42:10.679Z,98202.75
2022-09-25T05:44:56.200Z,98200.13
2022-09-25T05:47:43.607Z,98023.47
2022-09-25T05:50:29.720Z,98008.03
2022-09-25T05:53:15.278Z,98171.72
2022-09-25T05:56:03.476Z,98198.31
2022-09-25T05:58:49.280Z,98198.47
2022-09-25T06:01:34.903Z,98136.34
2022-09-25T06:04:20.403Z,98034.88
2022-09-25T06:07:06.010Z,98121.81
2022-09-25T06:09:51.360Z,98173.91
2022-09-25T06:12:36.776Z,98027.22
2022-09-25T06:15:24.155Z,98192.00
2022-09-25T06:18:10.046Z,98200.84
2022-09-25T06:21:04.619Z,98200.94
2022-09-25T06:23:50.224Z,98184.72
2022-09-25T06:26:35.576Z,98157.25
2022-09-25T06:29:20.858Z,98017.91
2022-09-25T06:32:06.206Z,98162.97
2022-09-25T06:34:51.405Z,98055.03
2022-09-25T06:37:36.905Z,98182.81
2022-09-25T06:40:22.269Z,98192.88
2022-09-25T06:43:11.661Z,98140.84
2022-09-25T06:46:00.137Z,98123.63
2022-09-25T06:48:54.257Z,98027.81
2022-09-25T06:51:40.310Z,98160.50
2022-09-25T06:54:29.624Z,98174.75
2022-09-25T06:57:16.184Z,98175.31
2022-09-25T07:00:03.511Z,98183.69
2022-09-25T07:03:07.792Z,98196.09
2022-09-25T07:05:53.174Z,98139.19
2022-09-25T07:08:40.160Z,98006.94
2022-09-25T07:11:28.277Z,98033.31
2022-09-25T07:14:13.836Z,98199.72
2022-09-25T07:16:59.773Z,98131.69
2022-09-25T07:19:45.020Z,98180.81
2022-09-25T07:22:30.517Z,98179.59
2022-09-25T07:25:16.142Z,98035.06
2022-09-25T07:28:02.288Z,98168.31
2022-09-25T07:30:49.881Z,98179.28
2022-09-25T07:33:37.132Z,98021.53
2022-09-25T07:36:23.236Z,98055.25
2022-09-25T07:39:11.759Z,98191.78
2022-09-25T07:42:00.278Z,98183.78
2022-09-25T07:44:48.519Z,98204.09
2022-09-25T07:47:34.162Z,98029.38
2022-09-25T07:50:19.782Z,98131.28
2022-09-25T07:53:05.126Z,98044.63
2022-09-25T07:55:51.164Z,98071.81
2022-09-25T07:58:36.607Z,98182.78
2022-09-25T08:01:22.014Z,98154.19
2022-09-25T08:04:07.599Z,98191.81
2022-09-25T08:06:53.294Z,98199.47
2022-09-25T08:09:41.457Z,98097.97
2022-09-25T08:12:29.821Z,98181.03
2022-09-25T08:15:16.465Z,98199.97
2022-09-25T08:18:02.172Z,98180.31
2022-09-25T08:20:48.531Z,98181.41
2022-09-25T08:23:34.547Z,98187.69
2022-09-25T08:26:22.045Z,98188.03
2022-09-25T08:29:10.753Z,98178.09
2022-09-25T08:31:56.316Z,98059.38
2022-09-25T08:34:43.078Z,98133.94
2022-09-25T08:37:31.275Z,98170.66
2022-09-25T08:40:20.450Z,98175.50
2022-09-25T08:43:08.383Z,98163.00
2022-09-25T08:46:18.872Z,98152.53
2022-09-25T08:49:15.697Z,98136.78
2022-09-25T08:52:09.222Z,98159.44
2022-09-25T08:54:55.396Z,98160.25
2022-09-25T08:57:44.330Z,98165.13
2022-09-25T09:00:30.996Z,98159.19
2022-09-25T09:03:17.303Z,98151.53
2022-09-25T09:06:08.538Z,98128.69
2022-09-25T09:09:29.803Z,98140.03
2022-09-25T09:12:28.800Z,98145.44
2022-09-25T09:15:32.761Z,98136.22
2022-09-25T09:18:29.057Z,98104.63
2022-09-25T09:21:38.655Z,98137.72
2022-09-25T09:24:34.172Z,98127.78
2022-09-25T09:27:26.044Z,98127.84
2022-09-25T09:30:23.390Z,98122.66
2022-09-25T09:33:21.320Z,98119.84
2022-09-25T09:36:34.927Z,98113.44
2022-09-25T09:39:24.719Z,98044.75
2022-09-25T09:42:28.882Z,98102.00
2022-09-25T09:45:46.871Z,98103.69
2022-09-25T09:48:44.491Z,98113.63
2022-09-25T09:51:45.034Z,98066.44
2022-09-25T09:54:45.768Z,98082.53
2022-09-25T09:57:38.110Z,98101.59
2022-09-25T10:00:24.324Z,98065.19
2022-09-25T10:03:17.269Z,98068.81
2022-09-25T10:06:09.069Z,98049.63
2022-09-25T10:08:54.686Z,98037.00
2022-09-25T10:11:41.637Z,98071.78
2022-09-25T10:14:33.091Z,98049.72
2022-09-25T10:17:20.011Z,97919.34
2022-09-25T10:20:24.977Z,97938.06
2022-09-25T10:23:35.835Z,98062.38
2022-09-25T10:26:35.949Z,97921.63
2022-09-25T10:29:21.235Z,98075.47
2022-09-25T10:32:11.963Z,98059.72
2022-09-25T10:34:57.637Z,98020.53
2022-09-25T10:37:43.465Z,98059.50
2022-09-25T10:40:35.841Z,98061.47
2022-09-25T10:43:24.011Z,98003.13
2022-09-25T10:46:15.434Z,98017.41
2022-09-25T10:49:35.010Z,97905.78
2022-09-25T10:52:21.808Z,97895.19
2022-09-25T10:55:46.410Z,97922.63
2022-09-25T10:58:41.001Z,97897.44
2022-09-25T11:01:46.156Z,97968.03
2022-09-25T11:04:34.405Z,97992.53
2022-09-25T11:07:24.897Z,98031.06
2022-09-25T11:10:20.867Z,98021.44
2022-09-25T11:13:21.170Z,97965.69
2022-09-25T11:16:12.036Z,98014.19
2022-09-25T11:19:13.116Z,98036.47
2022-09-25T11:22:09.525Z,98036.47
2022-09-25T11:25:04.217Z,98002.91
2022-09-25T11:28:15.103Z,98001.84
2022-09-25T11:31:19.234Z,98041.88
2022-09-25T11:34:31.347Z,98016.75
2022-09-25T11:37:36.129Z,98006.63
2022-09-25T11:40:46.711Z,98047.38
2022-09-25T11:44:05.990Z,98044.06
2022-09-25T11:47:05.081Z,98042.94
2022-09-25T11:49:53.307Z,98004.91
2022-09-25T11:52:43.773Z,97913.78
2022-09-25T11:55:45.849Z,98045.47
2022-09-25T11:58:54.285Z,98032.06
2022-09-25T12:01:50.297Z,98024.31
2022-09-25T12:04:50.324Z,98009.66
2022-09-25T12:08:07.214Z,98013.31
2022-09-25T12:11:12.044Z,97917.59
2022-09-25T12:14:26.766Z,98001.44
2022-09-25T12:17:46.140Z,97855.66
2022-09-25T12:20:58.028Z,98004.88
2022-09-25T12:23:51.653Z,97970.78
2022-09-25T12:26:40.013Z,97990.41
2022-09-25T12:29:37.877Z,98010.94
2022-09-25T12:32:26.570Z,97970.50
2022-09-25T12:35:38.795Z,97987.78
2022-09-25T12:38:55.467Z,97999.53
2022-09-25T12:41:51.106Z,97853.00
2022-09-25T12:44:50.442Z,97983.16
2022-09-25T12:47:43.183Z,97955.84
2022-09-25T12:50:33.552Z,97941.38
2022-09-25T12:53:33.673Z,97815.47
2022-09-25T12:56:27.889Z,97968.88
2022-09-25T12:59:21.720Z,97967.06
2022-09-25T13:02:26.499Z,97981.09
2022-09-25T13:05:30.514Z,97963.00
2022-09-25T13:08:42.070Z,97939.16
2022-09-25T13:11:34.375Z,97971.28
2022-09-25T13:14:31.623Z,97959.78
2022-09-25T13:17:17.016Z,97844.72
2022-09-25T13:20:28.730Z,97961.78
2022-09-25T13:23:26.340Z,97857.56
2022-09-25T13:26:16.395Z,97910.13
2022-09-25T13:29:25.664Z,97896.84
2022-09-25T13:32:16.624Z,97967.63
2022-09-25T13:35:05.958Z,97875.66
2022-09-25T13:37:55.730Z,97892.00
2022-09-25T13:40:44.089Z,97912.53
2022-09-25T13:43:30.530Z,97928.09
2022-09-25T13:46:23.685Z,97946.72
2022-09-25T13:49:34.679Z,97948.00
2022-09-25T13:52:30.432Z,97888.81
2022-09-25T13:55:22.520Z,97925.41
2022-09-25T13:58:29.007Z,97883.84
2022-09-25T14:01:34.317Z,97797.22
2022-09-25T14:04:26.381Z,97945.47
2022-09-25T14:07:18.509Z,97925.84
2022-09-25T14:10:08.346Z,97917.06
2022-09-25T14:12:54.576Z,97919.41
2022-09-25T14:15:42.441Z,97908.53
2022-09-25T14:18:34.397Z,97902.03
2022-09-25T14:21:22.188Z,97909.50
2022-09-25T14:24:30.932Z,97879.47
2022-09-25T14:27:27.913Z,97896.00
2022-09-25T14:30:14.790Z,97711.06
2022-09-25T14:33:32.119Z,97892.75
2022-09-25T14:36:39.130Z,97892.69
2022-09-25T14:39:54.665Z,97754.25
2022-09-25T14:43:19.203Z,97896.00
2022-09-25T14:46:18.741Z,97887.88
2022-09-25T14:49:27.779Z,97884.13
2022-09-25T14:52:19.387Z,97889.31
2022-09-25T14:55:06.592Z,97910.56
2022-09-25T14:57:53.100Z,97880.34
2022-09-25T15:00:50.310Z,97898.97
2022-09-25T15:03:43.185Z,97906.69
2022-09-25T15:06:39.206Z,97905.59
2022-09-25T15:09:36.942Z,97905.00
2022-09-25T15:12:36.136Z,97922.00
2022-09-25T15:15:22.189Z,97741.53
2022-09-25T15:18:14.008Z,97853.81
2022-09-25T15:21:01.344Z,97901.59
2022-09-25T15:23:47.512Z,97865.38
2022-09-25T15:26:40.832Z,97864.97
2022-09-25T15:29:26.361Z,97909.69
2022-09-25T15:32:39.460Z,97894.47
2022-09-25T15:35:28.030Z,97891.66
2022-09-25T15:38:14.464Z,97833.44
2022-09-25T15:41:00.322Z,97773.06
2022-09-25T15:43:46.424Z,97853.28
2022-09-25T15:46:37.102Z,97904.81
2022-09-25T15:49:33.590Z,97885.06
2022-09-25T15:52:24.980Z,97881.63
2022-09-25T15:55:14.856Z,97835.56
2022-09-25T15:58:08.399Z,97880.50
2022-09-25T16:01:19.013Z,97882.56
2022-09-25T16:04:27.693Z,97677.81
2022-09-25T16:07:39.900Z,97878.84
2022-09-25T16:10:33.199Z,97876.97
2022-09-25T16:13:21.509Z,97827.53
2022-09-25T16:16:22.110Z,97871.25
2022-09-25T16:19:26.170Z,97880.19
2022-09-25T16:22:23.750Z,97793.88
2022-09-25T16:25:25.831Z,97730.75
2022-09-25T16:28:21.598Z,97838.41
2022-09-25T16:31:09.369Z,97744.09
2022-09-25T16:33:57.524Z,97892.22
2022-09-25T16:36:45.727Z,97870.25
2022-09-25T16:39:38.908Z,97768.28
2022-09-25T16:42:28.131Z,97912.19
2022-09-25T16:45:31.775Z,97908.56
2022-09-25T16:48:27.949Z,97911.28
2022-09-25T16:51:24.131Z,97901.44
2022-09-25T16:54:11.489Z,97875.31
2022-09-25T16:56:59.036Z,97883.19
2022-09-25T16:59:44.467Z,97868.72
2022-09-25T17:02:36.027Z,97891.69
2022-09-25T17:05:26.461Z,97841.13
2022-09-25T17:08:20.061Z,97850.53
2022-09-25T17:11:05.649Z,97740.63
2022-09-25T17:13:51.932Z,97896.34
2022-09-25T17:16:37.843Z,97873.44
2022-09-25T17:19:23.909Z,97755.78
2022-09-25T17:22:09.780Z,97909.06
2022-09-25T17:25:01.015Z,97907.19
2022-09-25T17:27:46.912Z,97866.56
2022-09-25T17:30:33.223Z,97911.28
2022-09-25T17:33:20.676Z,97912.78
2022-09-25T17:36:09.689Z,97864.91
2022-09-25T17:38:55.153Z,97869.03
2022-09-25T17:41:41.195Z,97864.25
2022-09-25T17:44:28.832Z,97896.66
2022-09-25T17:47:14.274Z,97887.00
2022-09-25T17:49:59.797Z,97844.72
2022-09-25T17:52:45.180Z,97840.38
2022-09-25T17:55:32.093Z,97843.28
2022-09-25T17:58:17.884Z,97841.50
2022-09-25T18:01:07.465Z,97886.78
2022-09-25T18:04:02.038Z,97888.13
2022-09-25T18:06:48.726Z,97891.44
2022-09-25T18:09:34.768Z,97740.44
2022-09-25T18:12:20.359Z,97739.59
2022-09-25T18:15:06.228Z,97763.13
2022-09-25T18:17:51.808Z,97887.06
2022-09-25T18:20:55.907Z,97889.03
2022-09-25T18:23:45.824Z,97701.88
2022-09-25T18:26:31.604Z,97723.16
2022-09-25T18:29:19.239Z,97815.78
2022-09-25T18:32:05.494Z,97874.50
2022-09-25T18:34:51.689Z,97868.50
2022-09-25T18:37:37.323Z,97836.13
2022-09-25T18:40:22.708Z,97863.75
2022-09-25T18:43:08.324Z,97733.59
2022-09-25T18:45:54.537Z,97756.41
2022-09-25T18:48:47.917Z,97683.06
2022-09-25T18:51:34.835Z,97723.44
2022-09-25T18:54:21.210Z,97720.31
2022-09-25T18:57:08.403Z,97810.13
2022-09-25T18:59:59.794Z,97832.50
2022-09-25T19:02:47.128Z,97826.00
2022-09-25T19:05:33.738Z,97853.81
2022-09-25T19:08:20.595Z,97854.59
2022-09-25T19:11:14.263Z,97701.97
2022-09-25T19:14:01.705Z,97752.41
2022-09-25T19:16:54.125Z,97860.38
2022-09-25T19:19:42.047Z,97841.03
2022-09-25T19:22:27.679Z,97775.38
2022-09-25T19:25:15.182Z,97805.03
2022-09-25T19:28:02.700Z,97855.09
2022-09-25T19:31:06.210Z,97838.38
2022-09-25T19:33:53.528Z,97813.09
2022-09-25T19:36:38.816Z,97857.41
2022-09-25T19:39:24.571Z,97864.19
2022-09-25T19:42:11.147Z,97853.16
2022-09-25T19:44:58.021Z,97820.97
2022-09-25T19:47:43.754Z,97812.28
2022-09-25T19:50:29.328Z,97775.75
2022-09-25T19:53:15.420Z,97825.34
2022-09-25T19:56:02.302Z,97826.81
2022-09-25T19:58:49.763Z,97867.25
2022-09-25T20:01:35.540Z,97867.47
2022-09-25T20:04:21.363Z,97691.88
2022-09-25T20:07:06.788Z,97695.25
2022-09-25T20:09:52.396Z,97721.38
2022-09-25T20:12:37.797Z,97708.56
2022-09-25T20:15:23.179Z,97870.41
2022-09-25T20:18:08.653Z,97696.91
2022-09-25T20:20:54.222Z,97772.91
2022-09-25T20:23:39.665Z,97847.66
2022-09-25T20:26:26.232Z,97729.59
2022-09-25T20:29:14.092Z,97727.19
2022-09-25T20:31:59.274Z,97698.84
2022-09-25T20:34:44.600Z,97810.19
2022-09-25T20:37:30.635Z,97755.00
2022-09-25T20:40:16.812Z,97825.91
2022-09-25T20:43:02.142Z,97716.75
2022-09-25T20:46:04.107Z,97865.16
2022-09-25T20:48:51.523Z,97842.63
2022-09-25T20:51:37.320Z,97852.31
2022-09-25T20:54:25.367Z,97811.78
2022-09-25T20:57:11.600Z,97801.72
2022-09-25T20:59:57.115Z,97676.72
2022-09-25T21:02:42.568Z,97824.00
2022-09-25T21:05:28.223Z,97677.19
2022-09-25T21:08:13.740Z,97820.63
2022-09-25T21:11:01.851Z,97675.63
2022-09-25T21:13:52.685Z,97816.00
2022-09-25T21:16:37.963Z,97815.75
2022-09-25T21:19:23.707Z,97809.72
2022-09-25T21:22:09.139Z,97827.50
2022-09-25T21:24:54.920Z,97808.25
2022-09-25T21:27:40.481Z,97787.94
2022-09-25T21:30:25.888Z,97797.84
2022-09-25T21:33:11.348Z,97778.88
2022-09-25T21:35:56.766Z,97804.66
2022-09-25T21:38:43.194Z,97728.34
2022-09-25T21:41:30.297Z,97806.44
2022-09-25T21:44:17.846Z,97821.44
2022-09-25T21:47:03.546Z,97761.53
2022-09-25T21:49:48.993Z,97632.31
2022-09-25T21:52:34.526Z,97788.53
2022-09-25T21:55:19.866Z,97674.91
2022-09-25T21:58:05.215Z,97610.19
2022-09-25T22:00:50.588Z,97785.03
2022-09-25T22:03:37.774Z,97650.84
2022-09-25T22:06:29.098Z,97762.03
2022-09-25T22:09:23.238Z,97657.72
2022-09-25T22:12:08.603Z,97736.63
2022-09-25T22:14:54.040Z,97638.03
2022-09-25T22:17:39.415Z,97716.66
2022-09-25T22:20:24.895Z,97762.25
2022-09-25T22:23:10.432Z,97577.47
2022-09-25T22:25:55.898Z,97594.16
2022-09-25T22:28:42.292Z,97612.78
2022-09-25T22:31:30.562Z,97748.81
2022-09-25T22:34:17.932Z,97756.31
2022-09-25T22:37:03.751Z,97708.66
2022-09-25T22:39:49.021Z,97739.03
2022-09-25T22:42:34.241Z,97715.53
2022-09-25T22:45:19.372Z,97717.72
2022-09-25T22:48:06.154Z,97744.59
2022-09-25T22:51:07.321Z,97566.13
2022-09-25T22:53:54.146Z,97619.53
2022-09-25T22:56:39.973Z,97722.19
2022-09-25T22:59:25.659Z,97781.63
2022-09-25T23:02:11.306Z,97661.88
2022-09-25T23:04:56.960Z,97617.97
2022-09-25T23:07:42.873Z,97698.13
2022-09-25T23:10:42.917Z,97756.44
2022-09-25T23:13:34.564Z,97750.66
2022-09-25T23:16:20.190Z,97580.16
2022-09-25T23:19:05.496Z,97729.34
2022-09-25T23:21:52.612Z,97576.63
2022-09-25T23:24:38.515Z,97725.47
2022-09-25T23:27:23.985Z,97555.00
2022-09-25T23:30:10.191Z,97726.69
2022-09-25T23:32:55.916Z,97713.13
2022-09-25T23:35:41.537Z,97570.72
2022-09-25T23:38:27.261Z,97599.69
2022-09-25T23:41:21.258Z,97708.75
2022-09-25T23:44:08.810Z,97710.09
2022-09-25T23:46:54.321Z,97567.81
2022-09-25T23:49:39.983Z,97566.25
2022-09-25T23:52:26.145Z,97621.25
2022-09-25T23:55:11.335Z,97715.56
2022-09-25T23:57:56.681Z,97687.63
